sensor_id;sensor_type;location;lat;lon;timestamp;P1;durP1;ratioP1;P2;durP2;ratioP2
14708;SDS011;7445;50.774;4.944;2023-03-31T07:10:15;9.90;;;3.77;;
14708;SDS011;7445;50.774;4.944;2023-03-31T07:12:41;16.80;;;3.63;;
14708;SDS011;7445;50.774;4.944;2023-03-31T07:15:06;10.30;;;3.07;;
14708;SDS011;7445;50.774;4.944;2023-03-31T07:17:32;13.37;;;3.73;;
14708;SDS011;7445;50.774;4.944;2023-03-31T07:19:58;15.00;;;4.97;;
14708;SDS011;7445;50.774;4.944;2023-03-31T07:22:24;25.63;;;6.70;;
14708;SDS011;7445;50.774;4.944;2023-03-31T07:24:50;10.53;;;4.03;;
14708;SDS011;7445;50.774;4.944;2023-03-31T07:27:15;15.47;;;4.83;;
14708;SDS011;7445;50.774;4.944;2023-03-31T07:29:44;9.67;;;2.93;;
14708;SDS011;7445;50.774;4.944;2023-03-31T07:32:10;7.10;;;3.67;;
14708;SDS011;7445;50.774;4.944;2023-03-31T07:34:35;15.30;;;2.97;;
14708;SDS011;7445;50.774;4.944;2023-03-31T07:37:01;16.47;;;4.23;;
14708;SDS011;7445;50.774;4.944;2023-03-31T07:39:26;10.57;;;3.70;;
14708;SDS011;7445;50.774;4.944;2023-03-31T07:41:52;9.67;;;4.23;;
14708;SDS011;7445;50.774;4.944;2023-03-31T07:44:18;15.77;;;4.93;;
14708;SDS011;7445;50.774;4.944;2023-03-31T07:46:45;14.70;;;3.70;;
14708;SDS011;7445;50.774;4.944;2023-03-31T07:49:11;17.43;;;4.80;;
14708;SDS011;7445;50.774;4.944;2023-03-31T07:51:40;12.73;;;5.03;;
14708;SDS011;7445;50.774;4.944;2023-03-31T07:54:06;9.00;;;4.33;;
14708;SDS011;7445;50.774;4.944;2023-03-31T07:56:31;12.10;;;4.17;;
14708;SDS011;7445;50.774;4.944;2023-03-31T07:58:57;13.40;;;3.27;;
14708;SDS011;7445;50.774;4.944;2023-03-31T08:01:23;18.03;;;4.97;;
14708;SDS011;7445;50.774;4.944;2023-03-31T08:03:50;17.87;;;4.00;;
14708;SDS011;7445;50.774;4.944;2023-03-31T08:06:20;23.60;;;5.47;;
14708;SDS011;7445;50.774;4.944;2023-03-31T08:08:49;13.33;;;3.63;;
14708;SDS011;7445;50.774;4.944;2023-03-31T08:11:15;15.70;;;4.67;;
14708;SDS011;7445;50.774;4.944;2023-03-31T08:13:42;14.57;;;4.23;;
14708;SDS011;7445;50.774;4.944;2023-03-31T08:16:08;12.00;;;4.47;;
14708;SDS011;7445;50.774;4.944;2023-03-31T08:18:34;14.83;;;5.00;;
14708;SDS011;7445;50.774;4.944;2023-03-31T08:20:59;17.93;;;5.13;;
14708;SDS011;7445;50.774;4.944;2023-03-31T08:23:25;17.53;;;3.93;;
14708;SDS011;7445;50.774;4.944;2023-03-31T08:25:51;16.20;;;5.20;;
14708;SDS011;7445;50.774;4.944;2023-03-31T08:28:16;14.40;;;5.07;;
14708;SDS011;7445;50.774;4.944;2023-03-31T08:30:42;10.27;;;4.70;;
14708;SDS011;7445;50.774;4.944;2023-03-31T08:33:08;17.70;;;5.07;;
14708;SDS011;7445;50.774;4.944;2023-03-31T08:35:36;10.87;;;3.17;;
14708;SDS011;7445;50.774;4.944;2023-03-31T08:38:02;11.73;;;3.67;;
14708;SDS011;7445;50.774;4.944;2023-03-31T08:40:28;9.23;;;3.27;;
14708;SDS011;7445;50.774;4.944;2023-03-31T08:42:56;19.37;;;5.00;;
14708;SDS011;7445;50.774;4.944;2023-03-31T08:45:38;17.83;;;4.40;;
14708;SDS011;7445;50.774;4.944;2023-03-31T08:48:08;13.83;;;4.27;;
14708;SDS011;7445;50.774;4.944;2023-03-31T08:50:49;9.33;;;3.87;;
14708;SDS011;7445;50.774;4.944;2023-03-31T08:53:21;10.30;;;3.20;;
14708;SDS011;7445;50.774;4.944;2023-03-31T08:55:52;12.57;;;4.13;;
14708;SDS011;7445;50.774;4.944;2023-03-31T09:06:35;10.67;;;3.20;;
14708;SDS011;7445;50.774;4.944;2023-03-31T09:09:09;10.48;;;2.88;;
14708;SDS011;7445;50.774;4.944;2023-03-31T09:14:25;12.03;;;3.13;;
14708;SDS011;7445;50.774;4.944;2023-03-31T09:19:44;7.60;;;2.73;;
14708;SDS011;7445;50.774;4.944;2023-03-31T09:22:18;8.00;;;2.53;;
14708;SDS011;7445;50.774;4.944;2023-03-31T09:24:58;11.77;;;3.07;;
14708;SDS011;7445;50.774;4.944;2023-03-31T09:27:29;7.37;;;2.93;;
14708;SDS011;7445;50.774;4.944;2023-03-31T09:30:04;10.77;;;3.37;;
14708;SDS011;7445;50.774;4.944;2023-03-31T09:32:39;11.13;;;2.87;;
14708;SDS011;7445;50.774;4.944;2023-03-31T09:35:19;13.87;;;4.27;;
14708;SDS011;7445;50.774;4.944;2023-03-31T09:37:46;11.37;;;3.57;;
14708;SDS011;7445;50.774;4.944;2023-03-31T09:40:14;8.23;;;2.87;;
14708;SDS011;7445;50.774;4.944;2023-03-31T09:42:42;8.63;;;3.03;;
14708;SDS011;7445;50.774;4.944;2023-03-31T09:45:16;8.07;;;2.30;;
14708;SDS011;7445;50.774;4.944;2023-03-31T09:47:44;9.00;;;2.70;;
14708;SDS011;7445;50.774;4.944;2023-03-31T09:50:15;9.93;;;3.50;;
14708;SDS011;7445;50.774;4.944;2023-03-31T09:55:31;21.93;;;4.93;;
14708;SDS011;7445;50.774;4.944;2023-03-31T09:58:07;12.17;;;3.60;;
14708;SDS011;7445;50.774;4.944;2023-03-31T10:00:39;14.83;;;4.90;;
14708;SDS011;7445;50.774;4.944;2023-03-31T10:03:09;19.53;;;6.23;;
14708;SDS011;7445;50.774;4.944;2023-03-31T10:05:38;16.07;;;5.07;;
14708;SDS011;7445;50.774;4.944;2023-03-31T10:10:55;10.50;;;4.50;;
14708;SDS011;7445;50.774;4.944;2023-03-31T10:16:27;19.60;;;4.70;;
14708;SDS011;7445;50.774;4.944;2023-03-31T10:18:52;16.43;;;5.30;;
14708;SDS011;7445;50.774;4.944;2023-03-31T10:23:51;12.20;;;5.00;;
14708;SDS011;7445;50.774;4.944;2023-03-31T10:26:27;24.97;;;7.10;;
14708;SDS011;7445;50.774;4.944;2023-03-31T10:28:53;17.60;;;4.97;;
14708;SDS011;7445;50.774;4.944;2023-03-31T10:31:41;17.33;;;5.13;;
14708;SDS011;7445;50.774;4.944;2023-03-31T10:34:06;12.63;;;3.90;;
14708;SDS011;7445;50.774;4.944;2023-03-31T10:36:37;16.03;;;4.23;;
14708;SDS011;7445;50.774;4.944;2023-03-31T10:39:14;19.37;;;3.50;;
14708;SDS011;7445;50.774;4.944;2023-03-31T10:41:41;9.77;;;2.53;;
14708;SDS011;7445;50.774;4.944;2023-03-31T10:44:22;14.67;;;3.83;;
14708;SDS011;7445;50.774;4.944;2023-03-31T10:47:02;15.43;;;3.67;;
14708;SDS011;7445;50.774;4.944;2023-03-31T10:49:49;13.00;;;2.70;;
14708;SDS011;7445;50.774;4.944;2023-03-31T10:52:21;12.03;;;3.63;;
14708;SDS011;7445;50.774;4.944;2023-03-31T10:54:50;9.87;;;3.67;;
14708;SDS011;7445;50.774;4.944;2023-03-31T10:57:20;12.83;;;4.40;;
14708;SDS011;7445;50.774;4.944;2023-03-31T11:10:46;12.53;;;3.73;;
14708;SDS011;7445;50.774;4.944;2023-03-31T11:13:19;11.60;;;3.43;;
14708;SDS011;7445;50.774;4.944;2023-03-31T11:16:09;14.17;;;4.17;;
14708;SDS011;7445;50.774;4.944;2023-03-31T11:21:32;12.67;;;4.23;;
14708;SDS011;7445;50.774;4.944;2023-03-31T11:24:14;12.60;;;3.10;;
14708;SDS011;7445;50.774;4.944;2023-03-31T11:29:32;10.27;;;2.53;;
14708;SDS011;7445;50.774;4.944;2023-03-31T11:46:14;9.27;;;3.50;;
14708;SDS011;7445;50.774;4.944;2023-03-31T11:48:46;10.20;;;2.17;;
14708;SDS011;7445;50.774;4.944;2023-03-31T11:51:33;11.87;;;3.30;;
14708;SDS011;7445;50.774;4.944;2023-03-31T11:54:21;5.53;;;2.17;;
14708;SDS011;7445;50.774;4.944;2023-03-31T11:56:55;11.07;;;2.73;;
14708;SDS011;7445;50.774;4.944;2023-03-31T11:59:22;12.97;;;3.93;;
14708;SDS011;7445;50.774;4.944;2023-03-31T12:04:39;9.10;;;2.80;;
14708;SDS011;7445;50.774;4.944;2023-03-31T12:07:56;9.47;;;2.93;;
14708;SDS011;7445;50.774;4.944;2023-03-31T12:10:16;7.03;;;2.90;;
14708;SDS011;7445;50.774;4.944;2023-03-31T12:12:48;11.57;;;3.87;;
14708;SDS011;7445;50.774;4.944;2023-03-31T12:15:26;8.63;;;3.00;;
14708;SDS011;7445;50.774;4.944;2023-03-31T12:17:59;15.47;;;3.30;;
14708;SDS011;7445;50.774;4.944;2023-03-31T12:20:44;11.97;;;3.20;;
14708;SDS011;7445;50.774;4.944;2023-03-31T12:23:24;11.30;;;4.20;;
14708;SDS011;7445;50.774;4.944;2023-03-31T12:25:54;11.90;;;2.87;;
14708;SDS011;7445;50.774;4.944;2023-03-31T12:28:40;8.90;;;2.90;;
14708;SDS011;7445;50.774;4.944;2023-03-31T12:31:10;7.43;;;2.23;;
14708;SDS011;7445;50.774;4.944;2023-03-31T12:33:55;9.10;;;2.67;;
14708;SDS011;7445;50.774;4.944;2023-03-31T12:56:00;16.57;;;4.07;;
14708;SDS011;7445;50.774;4.944;2023-03-31T13:01:19;14.23;;;3.73;;
14708;SDS011;7445;50.774;4.944;2023-03-31T13:07:04;10.87;;;2.57;;
14708;SDS011;7445;50.774;4.944;2023-03-31T13:09:51;11.07;;;3.37;;
14708;SDS011;7445;50.774;4.944;2023-03-31T13:12:27;9.83;;;3.30;;
14708;SDS011;7445;50.774;4.944;2023-03-31T13:14:59;17.63;;;4.73;;
14708;SDS011;7445;50.774;4.944;2023-03-31T13:17:34;12.10;;;3.37;;
14708;SDS011;7445;50.774;4.944;2023-03-31T13:22:58;5.40;;;1.50;;
14708;SDS011;7445;50.774;4.944;2023-03-31T13:27:54;3.13;;;1.87;;
14708;SDS011;7445;50.774;4.944;2023-03-31T13:41:23;4.70;;;1.90;;
14708;SDS011;7445;50.774;4.944;2023-03-31T13:47:16;9.83;;;2.80;;
14708;SDS011;7445;50.774;4.944;2023-03-31T13:58:33;7.37;;;2.43;;
14708;SDS011;7445;50.774;4.944;2023-03-31T14:07:08;4.73;;;1.67;;
14708;SDS011;7445;50.774;4.944;2023-03-31T14:09:39;4.67;;;1.87;;
14708;SDS011;7445;50.774;4.944;2023-03-31T14:12:20;5.03;;;1.90;;
14708;SDS011;7445;50.774;4.944;2023-03-31T14:14:54;6.27;;;1.93;;
14708;SDS011;7445;50.774;4.944;2023-03-31T14:17:21;3.17;;;1.50;;
14708;SDS011;7445;50.774;4.944;2023-03-31T14:22:47;9.63;;;2.27;;
14708;SDS011;7445;50.774;4.944;2023-03-31T14:28:20;4.60;;;1.20;;
14708;SDS011;7445;50.774;4.944;2023-03-31T14:37:00;2.90;;;1.37;;
14708;SDS011;7445;50.774;4.944;2023-03-31T14:39:30;4.13;;;0.90;;
14708;SDS011;7445;50.774;4.944;2023-03-31T14:42:01;3.47;;;0.50;;
14708;SDS011;7445;50.774;4.944;2023-03-31T14:44:31;2.43;;;0.97;;
14708;SDS011;7445;50.774;4.944;2023-03-31T14:46:59;3.07;;;0.80;;
14708;SDS011;7445;50.774;4.944;2023-03-31T14:49:33;2.10;;;0.53;;
14708;SDS011;7445;50.774;4.944;2023-03-31T14:52:02;2.10;;;0.57;;
14708;SDS011;7445;50.774;4.944;2023-03-31T14:54:44;4.53;;;0.57;;
14708;SDS011;7445;50.774;4.944;2023-03-31T14:57:12;1.70;;;0.83;;
14708;SDS011;7445;50.774;4.944;2023-03-31T14:59:44;1.50;;;0.80;;
14708;SDS011;7445;50.774;4.944;2023-03-31T15:02:15;0.60;;;0.60;;
14708;SDS011;7445;50.774;4.944;2023-03-31T15:04:45;3.60;;;0.57;;
14708;SDS011;7445;50.774;4.944;2023-03-31T15:07:13;3.50;;;0.57;;
14708;SDS011;7445;50.774;4.944;2023-03-31T15:09:41;1.80;;;1.07;;
14708;SDS011;7445;50.774;4.944;2023-03-31T15:12:14;1.03;;;0.50;;
14708;SDS011;7445;50.774;4.944;2023-03-31T15:14:46;2.97;;;1.17;;
14708;SDS011;7445;50.774;4.944;2023-03-31T15:17:20;3.40;;;1.53;;
14708;SDS011;7445;50.774;4.944;2023-03-31T15:20:01;2.80;;;1.10;;
14708;SDS011;7445;50.774;4.944;2023-03-31T15:22:53;3.33;;;0.93;;
14708;SDS011;7445;50.774;4.944;2023-03-31T15:25:20;3.27;;;1.37;;
14708;SDS011;7445;50.774;4.944;2023-03-31T15:27:50;2.17;;;1.00;;
14708;SDS011;7445;50.774;4.944;2023-03-31T15:30:25;3.70;;;1.63;;
14708;SDS011;7445;50.774;4.944;2023-03-31T15:32:52;4.43;;;1.03;;
14708;SDS011;7445;50.774;4.944;2023-03-31T15:35:23;3.27;;;1.10;;
14708;SDS011;7445;50.774;4.944;2023-03-31T15:37:55;3.20;;;1.37;;
14708;SDS011;7445;50.774;4.944;2023-03-31T15:40:26;2.60;;;0.90;;
14708;SDS011;7445;50.774;4.944;2023-03-31T15:42:55;3.07;;;0.93;;
14708;SDS011;7445;50.774;4.944;2023-03-31T15:47:49;3.60;;;1.87;;
14708;SDS011;7445;50.774;4.944;2023-03-31T15:50:16;4.07;;;1.47;;
14708;SDS011;7445;50.774;4.944;2023-03-31T15:52:51;6.23;;;1.40;;
14708;SDS011;7445;50.774;4.944;2023-03-31T15:57:54;2.47;;;1.17;;
14708;SDS011;7445;50.774;4.944;2023-03-31T16:03:28;10.90;;;2.57;;
14708;SDS011;7445;50.774;4.944;2023-03-31T16:09:07;4.97;;;1.57;;
14708;SDS011;7445;50.774;4.944;2023-03-31T16:14:06;3.07;;;1.43;;
14708;SDS011;7445;50.774;4.944;2023-03-31T16:16:44;8.10;;;1.77;;
14708;SDS011;7445;50.774;4.944;2023-03-31T16:19:16;4.27;;;1.17;;
14708;SDS011;7445;50.774;4.944;2023-03-31T16:21:48;4.23;;;1.13;;
14708;SDS011;7445;50.774;4.944;2023-03-31T16:24:18;6.80;;;1.80;;
14708;SDS011;7445;50.774;4.944;2023-03-31T16:26:45;10.97;;;5.13;;
14708;SDS011;7445;50.774;4.944;2023-03-31T16:29:19;10.43;;;4.07;;
14708;SDS011;7445;50.774;4.944;2023-03-31T16:32:02;12.70;;;6.17;;
14708;SDS011;7445;50.774;4.944;2023-03-31T16:37:23;12.40;;;4.70;;
14708;SDS011;7445;50.774;4.944;2023-03-31T16:39:49;5.97;;;2.03;;
14708;SDS011;7445;50.774;4.944;2023-03-31T16:42:16;8.13;;;2.83;;
14708;SDS011;7445;50.774;4.944;2023-03-31T16:44:42;6.30;;;2.00;;
14708;SDS011;7445;50.774;4.944;2023-03-31T16:47:09;4.10;;;2.93;;
14708;SDS011;7445;50.774;4.944;2023-03-31T16:49:35;4.30;;;1.23;;
14708;SDS011;7445;50.774;4.944;2023-03-31T16:52:01;4.70;;;1.80;;
14708;SDS011;7445;50.774;4.944;2023-03-31T16:54:28;7.70;;;1.63;;
14708;SDS011;7445;50.774;4.944;2023-03-31T16:56:56;6.80;;;1.53;;
14708;SDS011;7445;50.774;4.944;2023-03-31T16:59:22;5.80;;;1.93;;
14708;SDS011;7445;50.774;4.944;2023-03-31T17:01:48;6.03;;;1.60;;
14708;SDS011;7445;50.774;4.944;2023-03-31T17:04:15;3.53;;;1.37;;
14708;SDS011;7445;50.774;4.944;2023-03-31T17:06:41;4.33;;;1.07;;
14708;SDS011;7445;50.774;4.944;2023-03-31T17:09:07;4.47;;;1.57;;
14708;SDS011;7445;50.774;4.944;2023-03-31T17:11:33;5.07;;;1.33;;
14708;SDS011;7445;50.774;4.944;2023-03-31T17:13:59;6.87;;;1.87;;
14708;SDS011;7445;50.774;4.944;2023-03-31T17:16:26;3.57;;;1.13;;
14708;SDS011;7445;50.774;4.944;2023-03-31T17:18:53;4.50;;;1.00;;
14708;SDS011;7445;50.774;4.944;2023-03-31T17:21:24;9.40;;;2.50;;
14708;SDS011;7445;50.774;4.944;2023-03-31T17:23:52;2.43;;;1.07;;
14708;SDS011;7445;50.774;4.944;2023-03-31T17:26:18;7.73;;;1.70;;
14708;SDS011;7445;50.774;4.944;2023-03-31T17:28:44;1.90;;;1.17;;
14708;SDS011;7445;50.774;4.944;2023-03-31T17:31:19;4.23;;;1.77;;
14708;SDS011;7445;50.774;4.944;2023-03-31T17:33:45;6.20;;;1.90;;
14708;SDS011;7445;50.774;4.944;2023-03-31T17:36:12;4.47;;;1.57;;
14708;SDS011;7445;50.774;4.944;2023-03-31T17:38:39;4.17;;;1.63;;
14708;SDS011;7445;50.774;4.944;2023-03-31T17:41:06;6.37;;;2.03;;
14708;SDS011;7445;50.774;4.944;2023-03-31T17:43:34;5.53;;;1.73;;
14708;SDS011;7445;50.774;4.944;2023-03-31T17:46:02;5.43;;;1.50;;
14708;SDS011;7445;50.774;4.944;2023-03-31T17:48:30;3.70;;;1.30;;
14708;SDS011;7445;50.774;4.944;2023-03-31T17:51:01;6.27;;;1.70;;
14708;SDS011;7445;50.774;4.944;2023-03-31T17:53:28;6.50;;;2.73;;
14708;SDS011;7445;50.774;4.944;2023-03-31T17:55:54;5.40;;;1.60;;
14708;SDS011;7445;50.774;4.944;2023-03-31T17:58:19;8.40;;;2.07;;
14708;SDS011;7445;50.774;4.944;2023-03-31T18:00:46;8.80;;;2.67;;
14708;SDS011;7445;50.774;4.944;2023-03-31T18:03:12;5.63;;;1.80;;
14708;SDS011;7445;50.774;4.944;2023-03-31T18:05:37;14.20;;;2.90;;
14708;SDS011;7445;50.774;4.944;2023-03-31T18:08:05;7.63;;;2.83;;
14708;SDS011;7445;50.774;4.944;2023-03-31T18:10:31;8.27;;;2.77;;
14708;SDS011;7445;50.774;4.944;2023-03-31T18:12:57;10.73;;;2.87;;
14708;SDS011;7445;50.774;4.944;2023-03-31T18:15:23;7.83;;;2.67;;
14708;SDS011;7445;50.774;4.944;2023-03-31T18:17:51;8.53;;;2.73;;
14708;SDS011;7445;50.774;4.944;2023-03-31T18:20:17;7.27;;;1.90;;
14708;SDS011;7445;50.774;4.944;2023-03-31T18:22:43;10.37;;;3.50;;
14708;SDS011;7445;50.774;4.944;2023-03-31T18:25:09;9.43;;;3.60;;
14708;SDS011;7445;50.774;4.944;2023-03-31T18:27:35;10.63;;;2.80;;
14708;SDS011;7445;50.774;4.944;2023-03-31T18:30:01;6.10;;;3.33;;
14708;SDS011;7445;50.774;4.944;2023-03-31T18:32:28;8.57;;;2.33;;
14708;SDS011;7445;50.774;4.944;2023-03-31T18:34:54;9.03;;;3.57;;
14708;SDS011;7445;50.774;4.944;2023-03-31T18:37:21;7.63;;;2.10;;
14708;SDS011;7445;50.774;4.944;2023-03-31T18:39:46;8.73;;;2.83;;
14708;SDS011;7445;50.774;4.944;2023-03-31T18:42:12;9.13;;;2.57;;
14708;SDS011;7445;50.774;4.944;2023-03-31T18:44:38;9.20;;;2.53;;
14708;SDS011;7445;50.774;4.944;2023-03-31T18:47:03;11.83;;;3.03;;
14708;SDS011;7445;50.774;4.944;2023-03-31T18:49:29;10.43;;;2.80;;
14708;SDS011;7445;50.774;4.944;2023-03-31T18:51:55;11.30;;;2.67;;
14708;SDS011;7445;50.774;4.944;2023-03-31T18:54:22;8.13;;;2.20;;
14708;SDS011;7445;50.774;4.944;2023-03-31T18:56:48;7.73;;;2.60;;
14708;SDS011;7445;50.774;4.944;2023-03-31T18:59:14;6.77;;;2.50;;
14708;SDS011;7445;50.774;4.944;2023-03-31T19:01:40;9.97;;;3.07;;
14708;SDS011;7445;50.774;4.944;2023-03-31T19:04:06;7.33;;;1.90;;
14708;SDS011;7445;50.774;4.944;2023-03-31T19:06:33;7.17;;;2.20;;
14708;SDS011;7445;50.774;4.944;2023-03-31T19:09:00;8.43;;;2.97;;
14708;SDS011;7445;50.774;4.944;2023-03-31T19:11:26;8.53;;;2.93;;
14708;SDS011;7445;50.774;4.944;2023-03-31T19:13:52;5.43;;;2.77;;
14708;SDS011;7445;50.774;4.944;2023-03-31T19:16:20;6.03;;;2.43;;
14708;SDS011;7445;50.774;4.944;2023-03-31T19:18:46;11.70;;;3.30;;
14708;SDS011;7445;50.774;4.944;2023-03-31T19:21:12;10.80;;;2.80;;
14708;SDS011;7445;50.774;4.944;2023-03-31T19:23:37;9.90;;;3.97;;
14708;SDS011;7445;50.774;4.944;2023-03-31T19:26:04;6.90;;;2.80;;
14708;SDS011;7445;50.774;4.944;2023-03-31T19:28:30;6.37;;;2.77;;
14708;SDS011;7445;50.774;4.944;2023-03-31T19:30:56;9.30;;;2.20;;
14708;SDS011;7445;50.774;4.944;2023-03-31T19:33:28;10.37;;;3.37;;
14708;SDS011;7445;50.774;4.944;2023-03-31T19:35:53;10.13;;;2.97;;
14708;SDS011;7445;50.774;4.944;2023-03-31T19:38:20;8.27;;;2.50;;
14708;SDS011;7445;50.774;4.944;2023-03-31T19:40:46;10.60;;;3.57;;
14708;SDS011;7445;50.774;4.944;2023-03-31T19:43:17;12.80;;;3.50;;
14708;SDS011;7445;50.774;4.944;2023-03-31T19:45:45;9.13;;;3.03;;
14708;SDS011;7445;50.774;4.944;2023-03-31T19:48:12;15.20;;;3.03;;
14708;SDS011;7445;50.774;4.944;2023-03-31T19:50:38;12.47;;;1.97;;
14708;SDS011;7445;50.774;4.944;2023-03-31T19:53:04;10.77;;;2.63;;
14708;SDS011;7445;50.774;4.944;2023-03-31T19:55:30;10.47;;;3.20;;
14708;SDS011;7445;50.774;4.944;2023-03-31T19:57:56;12.63;;;3.43;;
14708;SDS011;7445;50.774;4.944;2023-03-31T20:00:21;10.13;;;2.63;;
14708;SDS011;7445;50.774;4.944;2023-03-31T20:02:47;6.67;;;2.30;;
14708;SDS011;7445;50.774;4.944;2023-03-31T20:05:13;8.47;;;2.47;;
14708;SDS011;7445;50.774;4.944;2023-03-31T20:07:38;9.97;;;2.23;;
14708;SDS011;7445;50.774;4.944;2023-03-31T20:10:06;11.97;;;2.90;;
14708;SDS011;7445;50.774;4.944;2023-03-31T20:12:32;8.47;;;2.57;;
14708;SDS011;7445;50.774;4.944;2023-03-31T20:14:57;12.77;;;2.67;;
14708;SDS011;7445;50.774;4.944;2023-03-31T20:17:23;15.83;;;3.63;;
14708;SDS011;7445;50.774;4.944;2023-03-31T20:19:51;13.30;;;3.43;;
14708;SDS011;7445;50.774;4.944;2023-03-31T20:22:16;9.67;;;2.50;;
14708;SDS011;7445;50.774;4.944;2023-03-31T20:24:42;9.37;;;2.90;;
14708;SDS011;7445;50.774;4.944;2023-03-31T20:27:08;14.70;;;4.67;;
14708;SDS011;7445;50.774;4.944;2023-03-31T20:29:33;9.30;;;2.97;;
14708;SDS011;7445;50.774;4.944;2023-03-31T20:31:59;9.63;;;2.63;;
14708;SDS011;7445;50.774;4.944;2023-03-31T20:34:26;4.27;;;1.83;;
14708;SDS011;7445;50.774;4.944;2023-03-31T20:36:52;7.27;;;2.70;;
14708;SDS011;7445;50.774;4.944;2023-03-31T20:39:18;5.53;;;1.67;;
14708;SDS011;7445;50.774;4.944;2023-03-31T20:41:44;1.87;;;1.07;;
14708;SDS011;7445;50.774;4.944;2023-03-31T20:44:11;6.97;;;2.20;;
14708;SDS011;7445;50.774;4.944;2023-03-31T20:46:38;8.10;;;2.20;;
14708;SDS011;7445;50.774;4.944;2023-03-31T20:49:05;10.33;;;3.23;;
14708;SDS011;7445;50.774;4.944;2023-03-31T20:51:32;9.57;;;2.00;;
14708;SDS011;7445;50.774;4.944;2023-03-31T20:54:01;10.67;;;2.30;;
14708;SDS011;7445;50.774;4.944;2023-03-31T20:56:29;12.67;;;2.20;;
14708;SDS011;7445;50.774;4.944;2023-03-31T20:59:02;9.30;;;2.77;;
14708;SDS011;7445;50.774;4.944;2023-03-31T21:01:29;9.60;;;2.53;;
14708;SDS011;7445;50.774;4.944;2023-03-31T21:03:56;6.70;;;2.20;;
14708;SDS011;7445;50.774;4.944;2023-03-31T21:06:25;10.48;;;2.72;;
14708;SDS011;7445;50.774;4.944;2023-03-31T21:08:52;9.80;;;3.28;;
14708;SDS011;7445;50.774;4.944;2023-03-31T21:11:19;10.23;;;3.33;;
14708;SDS011;7445;50.774;4.944;2023-03-31T21:13:51;8.03;;;2.43;;
14708;SDS011;7445;50.774;4.944;2023-03-31T21:16:17;6.67;;;1.80;;
14708;SDS011;7445;50.774;4.944;2023-03-31T21:18:44;9.67;;;2.07;;
14708;SDS011;7445;50.774;4.944;2023-03-31T21:21:11;9.57;;;3.10;;
14708;SDS011;7445;50.774;4.944;2023-03-31T21:23:38;9.83;;;2.30;;
14708;SDS011;7445;50.774;4.944;2023-03-31T21:26:04;9.47;;;2.47;;
14708;SDS011;7445;50.774;4.944;2023-03-31T21:28:32;7.43;;;1.93;;
14708;SDS011;7445;50.774;4.944;2023-03-31T21:31:01;3.50;;;1.77;;
14708;SDS011;7445;50.774;4.944;2023-03-31T21:33:32;9.67;;;2.43;;
14708;SDS011;7445;50.774;4.944;2023-03-31T21:35:59;5.63;;;2.77;;
14708;SDS011;7445;50.774;4.944;2023-03-31T21:38:25;12.53;;;2.23;;
14708;SDS011;7445;50.774;4.944;2023-03-31T21:40:52;13.47;;;2.13;;
14708;SDS011;7445;50.774;4.944;2023-03-31T21:43:22;8.73;;;2.23;;
14708;SDS011;7445;50.774;4.944;2023-03-31T21:45:49;9.77;;;2.37;;
14708;SDS011;7445;50.774;4.944;2023-03-31T21:48:17;9.70;;;1.40;;
14708;SDS011;7445;50.774;4.944;2023-03-31T21:50:44;6.83;;;2.30;;
14708;SDS011;7445;50.774;4.944;2023-03-31T21:53:10;11.10;;;2.00;;
14708;SDS011;7445;50.774;4.944;2023-03-31T21:55:37;6.87;;;1.83;;
14708;SDS011;7445;50.774;4.944;2023-03-31T21:58:03;8.90;;;2.63;;
14708;SDS011;7445;50.774;4.944;2023-03-31T22:00:30;8.90;;;2.53;;
14708;SDS011;7445;50.774;4.944;2023-03-31T22:02:57;4.67;;;1.93;;
14708;SDS011;7445;50.774;4.944;2023-03-31T22:05:23;7.17;;;2.50;;
